Huvudsida
METAR-TAF:

METAR-TAF

Flygplatser :

Tabarka, Tunisien

latitud: 36-57N, longitud: 008-45E, höjd: 20 m

Aktuellt väderrapport

Denna rapport gjordes för 31 minuter sedan, klockan 03:00 UTC
Stilla vind
Temperatur 20°C
Fuktighet 100%
Tryck 1013 hPa

METAR: DTKA 200300Z AUTO 00000KT NCD 20/20 Q1013

Tid: 04:31 (03:31 UTC)

Väderprognos

Denna rapport gjordes för 3 timmar och 31 minuter sedan, klockan 00:00 UTC
Prognos gäller från 20 kl. 01 UTC till 20 kl. 10 UTC
Vind 2 kt varierande vindriktning
Sikt 10 km eller mer
Inga moln under 1 500 m eller inga cumulonimbus

TAF: DTKA 200000Z 2001/2010 VRB02KT CAVOK

Aktuella väderrapporter och prognoser från 4000 flygplatser (METAR- och TAF-rapporter).

De tillgängliga stationerna syns som gula och röda prickar på kartan.

För musen över prickarna för att se namnen på stationerna.

Klicka sedan för att få väderrapporter och prognoser.

För att ändra kartan: Klicka på de gröna knapparna med ett svart kors på för att zooma in; den gröna knappen med ett streck på för att zooma ut; eller på de gröna pilarna för angränsande kartor.


METAR-TAF: